Time;durP1;ratioP1;P1;durP2;ratioP2;P2;SDS_P1;SDS_P2;PMS_P1;PMS_P2;Temp;Humidity;BMP_temperature;BMP_pressure;BME280_temperature;BME280_humidity;BME280_pressure;Samples;Min_cycle;Max_cycle;Signal;HPM_P1;HPM_P2
2023/09/18 00:01:01;;;;;;;;;;;;;;;29.87;41.27;93765.72;5009613;28;7311;-62
2023/09/18 00:03:27;;;;;;;;;;;;;;;29.86;40.91;93763.53;5008254;28;7242;-61
2023/09/18 00:05:53;;;;;;;;;;;;;;;29.86;40.50;93780.91;5001607;28;9091;-61
2023/09/18 00:08:20;;;;;;;;;;;;;;;29.85;40.97;93779.41;5007292;28;7028;-62
2023/09/18 00:10:53;;;;;;;;;;;;;;;29.88;41.10;93780.34;5009493;28;9236;-61
2023/09/18 00:13:21;;;;;;;;;;;;;;;29.89;39.88;93785.31;4996088;28;7006;-61
2023/09/18 00:15:54;;;;;;;;;;;;;;;29.91;41.15;93793.81;5009852;28;6972;-61
2023/09/18 00:18:22;;;;;;;;;;;;;;;29.93;40.45;93818.97;5005912;28;8228;-62
2023/09/18 00:20:54;;;;;;;;;;;;;;;29.95;40.70;93833.00;5002080;28;7593;-61
2023/09/18 00:23:23;;;;;;;;;;;;;;;29.96;40.28;93817.13;5006881;28;9037;-61
2023/09/18 00:25:49;;;;;;;;;;;;;;;29.96;40.44;93820.63;5009903;28;7554;-62
2023/09/18 00:28:15;;;;;;;;;;;;;;;29.96;40.54;93820.63;5011337;28;8815;-61
2023/09/18 00:30:53;;;;;;;;;;;;;;;29.98;41.17;93809.00;4991187;28;7025;-61
2023/09/18 00:33:24;;;;;;;;;;;;;;;29.96;40.00;93801.22;5002815;28;7084;-61
2023/09/18 00:35:51;;;;;;;;;;;;;;;29.99;40.23;93805.69;5015649;28;7186;-61
2023/09/18 00:38:20;;;;;;;;;;;;;;;29.97;40.91;93790.88;4993204;28;7173;-61
2023/09/18 00:40:46;;;;;;;;;;;;;;;29.96;40.87;93779.03;5025387;28;6969;-61
2023/09/18 00:43:12;;;;;;;;;;;;;;;29.96;40.71;93778.31;5018657;28;7187;-61
2023/09/18 00:45:49;;;;;;;;;;;;;;;29.95;40.68;93777.56;4999308;28;9697;-61
2023/09/18 00:48:17;;;;;;;;;;;;;;;29.97;40.57;93768.69;5008295;28;9116;-61
2023/09/18 00:50:48;;;;;;;;;;;;;;;29.97;40.65;93761.09;4999281;28;7808;-61
2023/09/18 00:53:25;;;;;;;;;;;;;;;29.96;39.88;93736.72;5020073;28;9272;-61
2023/09/18 00:55:57;;;;;;;;;;;;;;;29.95;40.16;93740.78;4998268;28;7221;-61
2023/09/18 00:58:24;;;;;;;;;;;;;;;29.97;40.30;93738.19;5014871;28;8766;-61
2023/09/18 01:00:51;;;;;;;;;;;;;;;29.97;40.90;93727.09;5004214;28;8937;-61
2023/09/18 01:03:21;;;;;;;;;;;;;;;29.97;40.53;93721.56;5004397;28;9571;-61
2023/09/18 01:05:47;;;;;;;;;;;;;;;29.93;40.56;93708.06;4991533;28;6983;-61
2023/09/18 01:08:15;;;;;;;;;;;;;;;29.96;40.45;93700.66;5002847;28;7148;-61
2023/09/18 01:11:31;;;;;;;;;;;;;;;29.97;39.96;93702.16;5006734;28;7875;-61
2023/09/18 01:14:35;;;;;;;;;;;;;;;29.95;39.74;93691.59;5012554;28;7084;-60
2023/09/18 01:17:04;;;;;;;;;;;;;;;29.93;40.90;93685.88;4995170;28;7321;-61
2023/09/18 01:19:37;;;;;;;;;;;;;;;29.94;40.89;93697.72;5027454;28;8192;-61
2023/09/18 01:22:06;;;;;;;;;;;;;;;29.94;40.10;93694.94;5001746;28;7360;-61
2023/09/18 01:24:34;;;;;;;;;;;;;;;29.92;40.92;93694.75;5003277;28;8750;-60
2023/09/18 01:27:01;;;;;;;;;;;;;;;29.90;40.21;93709.19;5005154;28;7357;-61
2023/09/18 01:29:33;;;;;;;;;;;;;;;29.90;40.44;93703.63;5011292;28;8969;-61
2023/09/18 01:31:59;;;;;;;;;;;;;;;29.88;40.55;93703.44;5028145;28;7261;-61
2023/09/18 01:34:37;;;;;;;;;;;;;;;29.88;40.36;93700.69;5011673;28;9104;-61
2023/09/18 01:37:10;;;;;;;;;;;;;;;29.89;40.52;93688.28;5013157;28;7312;-61
2023/09/18 01:39:39;;;;;;;;;;;;;;;29.89;41.38;93679.97;5010143;28;7316;-61
2023/09/18 01:42:06;;;;;;;;;;;;;;;29.89;40.70;93691.06;5006750;28;7102;-61
2023/09/18 01:44:33;;;;;;;;;;;;;;;29.90;41.31;93672.38;5012348;28;7235;-59
2023/09/18 01:47:02;;;;;;;;;;;;;;;29.90;40.75;93680.72;5003104;28;7333;-59
2023/09/18 01:49:32;;;;;;;;;;;;;;;29.87;41.01;93679.78;5011449;28;8766;-59
2023/09/18 01:51:58;;;;;;;;;;;;;;;29.89;41.34;93688.28;5010207;28;8855;-59
2023/09/18 01:54:25;;;;;;;;;;;;;;;29.87;40.46;93682.56;5025354;28;8750;-59
2023/09/18 01:56:58;;;;;;;;;;;;;;;29.86;40.96;93678.31;5012324;28;7061;-59
2023/09/18 01:59:25;;;;;;;;;;;;;;;29.89;40.34;93688.28;5012244;28;9259;-59
2023/09/18 02:01:52;;;;;;;;;;;;;;;29.88;41.35;93686.06;5017596;28;7004;-59
2023/09/18 02:04:29;;;;;;;;;;;;;;;29.86;41.01;93692.19;5009749;28;7587;-59
2023/09/18 02:07:13;;;;;;;;;;;;;;;29.85;41.29;93699.00;5007542;28;7446;-59
2023/09/18 02:09:39;;;;;;;;;;;;;;;29.84;41.05;93711.38;5010196;28;8295;-59
2023/09/18 02:12:32;;;;;;;;;;;;;;;29.85;40.12;93712.88;4994639;28;9154;-59
2023/09/18 02:15:10;;;;;;;;;;;;;;;29.85;41.27;93717.66;4992360;28;7307;-59
2023/09/18 02:17:36;;;;;;;;;;;;;;;29.82;40.41;93707.72;4976379;28;7861;-59
2023/09/18 02:20:21;;;;;;;;;;;;;;;29.83;41.15;93718.22;4966475;28;7416;-59
2023/09/18 02:22:49;;;;;;;;;;;;;;;29.84;41.03;93727.28;4980844;28;7155;-59
2023/09/18 02:25:20;;;;;;;;;;;;;;;29.84;40.31;93733.56;4988158;28;8790;-59
2023/09/18 02:27:49;;;;;;;;;;;;;;;29.84;40.52;93738.38;4959806;28;8164;-59
2023/09/18 02:30:16;;;;;;;;;;;;;;;29.83;40.81;93756.31;4982206;28;7254;-59
2023/09/18 02:32:42;;;;;;;;;;;;;;;29.81;41.29;93767.94;4988280;28;9117;-59
2023/09/18 02:35:08;;;;;;;;;;;;;;;29.82;41.31;93780.50;4978072;28;9015;-59
2023/09/18 02:37:34;;;;;;;;;;;;;;;29.82;40.60;93801.97;4972629;28;9528;-59
2023/09/18 02:40:02;;;;;;;;;;;;;;;29.83;40.91;93820.81;4991795;28;9257;-59
2023/09/18 02:42:44;;;;;;;;;;;;;;;29.85;39.93;93834.88;4992076;28;7211;-59
2023/09/18 02:45:10;;;;;;;;;;;;;;;29.85;40.00;93845.94;4976938;28;6852;-59
2023/09/18 02:47:41;;;;;;;;;;;;;;;29.86;40.61;93864.09;4973646;28;7251;-59
2023/09/18 02:50:10;;;;;;;;;;;;;;;29.84;40.21;93868.69;4967947;28;6986;-59
2023/09/18 02:52:36;;;;;;;;;;;;;;;29.84;40.80;93860.38;4999249;28;9529;-58
2023/09/18 02:55:03;;;;;;;;;;;;;;;29.80;41.01;93857.94;5006962;28;9018;-61
2023/09/18 02:57:31;;;;;;;;;;;;;;;29.78;40.42;93868.84;5006657;28;9128;-61
2023/09/18 03:00:05;;;;;;;;;;;;;;;29.77;40.10;93878.47;4997613;28;7246;-61
2023/09/18 03:02:33;;;;;;;;;;;;;;;29.78;40.31;93888.25;5028103;28;7006;-61
2023/09/18 03:05:08;;;;;;;;;;;;;;;29.77;40.27;93887.53;5013354;28;9117;-61
2023/09/18 03:07:35;;;;;;;;;;;;;;;29.77;41.31;93889.56;5027133;28;7660;-61
2023/09/18 03:10:04;;;;;;;;;;;;;;;29.76;40.41;93888.06;5009676;28;7498;-61
2023/09/18 03:12:37;;;;;;;;;;;;;;;29.77;40.65;93892.34;5025204;28;7541;-61
2023/09/18 03:15:08;;;;;;;;;;;;;;;29.75;40.26;93886.59;5007137;28;7318;-61
2023/09/18 03:18:10;;;;;;;;;;;;;;;29.77;40.43;93886.78;5010144;28;7314;-61
2023/09/18 03:20:48;;;;;;;;;;;;;;;29.79;40.56;93884.19;4950157;28;7107;-61
2023/09/18 03:23:15;;;;;;;;;;;;;;;29.74;40.25;93877.53;4931956;29;8500;-61
2023/09/18 03:25:51;;;;;;;;;;;;;;;29.75;40.98;93887.31;4933231;28;7221;-61
2023/09/18 03:28:20;;;;;;;;;;;;;;;29.75;40.14;93886.59;4944011;28;7026;-61
2023/09/18 03:30:57;;;;;;;;;;;;;;;29.74;40.70;93896.94;4936510;28;7058;-61
2023/09/18 03:33:27;;;;;;;;;;;;;;;29.74;40.67;93912.81;4933144;28;9199;-61
2023/09/18 03:35:54;;;;;;;;;;;;;;;29.76;41.32;93910.25;4929853;29;7203;-61
2023/09/18 03:38:22;;;;;;;;;;;;;;;29.77;41.31;93900.66;4932219;28;7459;-61
2023/09/18 03:40:48;;;;;;;;;;;;;;;29.75;41.20;93892.16;4950508;28;8875;-61
2023/09/18 03:43:14;;;;;;;;;;;;;;;29.75;40.68;93881.06;4933771;28;9137;-61
2023/09/18 03:45:42;;;;;;;;;;;;;;;29.75;40.30;93878.28;4929024;28;7239;-61
2023/09/18 03:48:17;;;;;;;;;;;;;;;29.74;41.26;93876.78;4933434;28;9472;-61
2023/09/18 03:50:43;;;;;;;;;;;;;;;29.74;40.26;93882.34;4932915;28;7016;-61
2023/09/18 03:53:12;;;;;;;;;;;;;;;29.73;41.37;93886.38;4934574;28;10002;-61
2023/09/18 03:55:38;;;;;;;;;;;;;;;29.72;40.50;93893.22;4998796;28;7327;-61
2023/09/18 03:58:06;;;;;;;;;;;;;;;29.72;40.46;93898.75;4987629;28;7036;-61
2023/09/18 04:00:34;;;;;;;;;;;;;;;29.73;41.32;93892.66;5009790;28;8182;-61
2023/09/18 04:03:03;;;;;;;;;;;;;;;29.73;41.22;93883.63;5008921;28;9093;-56
2023/09/18 04:05:31;;;;;;;;;;;;;;;29.70;41.16;93868.81;5009526;28;9082;-56
2023/09/18 04:07:57;;;;;;;;;;;;;;;29.69;41.34;93867.31;5007583;28;6983;-56
2023/09/18 04:10:26;;;;;;;;;;;;;;;29.69;40.74;93867.31;5001177;28;7309;-56
2023/09/18 04:12:52;;;;;;;;;;;;;;;29.67;41.42;93863.63;5003729;28;7227;-56
2023/09/18 04:15:19;;;;;;;;;;;;;;;29.69;41.13;93877.66;5008253;28;7483;-56
2023/09/18 04:17:48;;;;;;;;;;;;;;;29.70;41.37;93879.16;5003362;28;7218;-56
2023/09/18 04:20:14;;;;;;;;;;;;;;;29.67;40.48;93885.78;5005654;28;9613;-56
2023/09/18 04:22:51;;;;;;;;;;;;;;;29.64;40.42;93871.03;5007446;28;7018;-56
2023/09/18 04:25:19;;;;;;;;;;;;;;;29.67;40.49;93869.91;5007522;28;7326;-56
2023/09/18 04:27:51;;;;;;;;;;;;;;;29.66;40.42;93862.16;4990588;28;7310;-56
2023/09/18 04:30:19;;;;;;;;;;;;;;;29.67;40.30;93853.28;5008107;28;7056;-56
2023/09/18 04:32:46;;;;;;;;;;;;;;;29.67;41.32;93844.22;5000782;28;7175;-56
2023/09/18 04:35:12;;;;;;;;;;;;;;;29.66;40.54;93842.75;5020376;28;8818;-56
2023/09/18 04:37:38;;;;;;;;;;;;;;;29.66;40.56;93831.66;5004053;28;7227;-56
2023/09/18 04:40:09;;;;;;;;;;;;;;;29.65;40.21;93844.03;5022422;28;7205;-56
2023/09/18 04:42:36;;;;;;;;;;;;;;;29.66;40.46;93859.38;4996856;28;7040;-56
2023/09/18 04:45:05;;;;;;;;;;;;;;;29.66;40.43;93876.75;5023275;28;7000;-56
2023/09/18 04:47:31;;;;;;;;;;;;;;;29.68;40.72;93890.06;5006845;28;9132;-56
2023/09/18 04:50:09;;;;;;;;;;;;;;;29.69;40.39;93895.03;5007151;28;7512;-56
2023/09/18 04:52:40;;;;;;;;;;;;;;;29.69;41.31;93895.03;5017608;28;7356;-56
2023/09/18 04:55:06;;;;;;;;;;;;;;;29.71;40.88;93892.47;5008250;28;7361;-56
2023/09/18 04:57:53;;;;;;;;;;;;;;;29.71;40.55;93895.22;5019175;28;7455;-57
2023/09/18 05:00:23;;;;;;;;;;;;;;;29.70;40.76;93893.00;5005874;28;7192;-56
2023/09/18 05:02:49;;;;;;;;;;;;;;;29.70;40.67;93885.44;4997720;28;9230;-56
2023/09/18 05:05:19;;;;;;;;;;;;;;;29.68;41.06;93888.03;5009434;28;7302;-56
2023/09/18 05:07:47;;;;;;;;;;;;;;;29.66;41.01;93870.47;5017896;28;8733;-56
2023/09/18 05:10:15;;;;;;;;;;;;;;;29.69;41.14;93877.66;5028068;28;7243;-56
2023/09/18 05:12:45;;;;;;;;;;;;;;;29.69;40.66;93870.09;4998139;28;7239;-65
2023/09/18 05:15:12;;;;;;;;;;;;;;;29.67;40.69;93878.22;5009995;28;7246;-65
2023/09/18 05:17:46;;;;;;;;;;;;;;;29.67;41.20;93869.16;5003989;28;7059;-65
2023/09/18 05:20:17;;;;;;;;;;;;;;;29.67;40.82;93869.16;5018804;28;8441;-67
2023/09/18 05:22:44;;;;;;;;;;;;;;;29.64;40.89;93859.19;5006656;28;7143;-67
2023/09/18 05:25:17;;;;;;;;;;;;;;;29.65;40.76;93872.50;5011157;28;9303;-67
2023/09/18 05:27:47;;;;;;;;;;;;;;;29.65;40.57;93869.72;5006731;28;7102;-67
2023/09/18 05:30:30;;;;;;;;;;;;;;;29.64;40.93;93857.16;5029046;28;6986;-68
2023/09/18 05:33:04;;;;;;;;;;;;;;;29.65;41.03;93863.44;5030357;28;7255;-67
2023/09/18 05:35:57;;;;;;;;;;;;;;;29.64;40.97;93853.66;5014722;28;8839;-67
2023/09/18 05:38:30;;;;;;;;;;;;;;;29.62;40.94;93845.16;4975427;28;7236;-67
2023/09/18 05:41:06;;;;;;;;;;;;;;;29.64;40.54;93850.88;4962549;28;7259;-65
2023/09/18 05:43:35;;;;;;;;;;;;;;;29.63;41.08;93849.38;4991965;28;7326;-65
2023/09/18 05:46:10;;;;;;;;;;;;;;;29.61;40.28;93849.19;4976969;28;9087;-65
2023/09/18 05:48:47;;;;;;;;;;;;;;;29.61;40.42;93849.19;4992925;28;7229;-66
2023/09/18 05:51:25;;;;;;;;;;;;;;;29.60;40.82;93844.97;4993084;28;9120;-66
2023/09/18 05:54:01;;;;;;;;;;;;;;;29.58;40.47;93842.72;4992716;28;7090;-66
2023/09/18 05:56:47;;;;;;;;;;;;;;;29.61;40.74;93851.97;4971349;28;9267;-67
2023/09/18 05:59:29;;;;;;;;;;;;;;;29.60;40.68;93837.38;4975040;28;7578;-66
2023/09/18 06:01:55;;;;;;;;;;;;;;;29.62;40.79;93847.91;4989636;28;7316;-66
2023/09/18 06:04:25;;;;;;;;;;;;;;;29.61;40.96;93849.19;4969918;28;7238;-66
2023/09/18 06:06:56;;;;;;;;;;;;;;;29.60;39.93;93854.00;4976067;28;6973;-66
2023/09/18 06:09:33;;;;;;;;;;;;;;;29.59;40.39;93851.78;4974573;28;7152;-66
2023/09/18 06:12:09;;;;;;;;;;;;;;;29.59;40.39;93858.06;4984278;28;7298;-66
2023/09/18 06:14:37;;;;;;;;;;;;;;;29.57;40.69;93852.34;4971714;28;9462;-65
2023/09/18 06:17:09;;;;;;;;;;;;;;;29.60;40.39;93854.00;5013508;28;7301;-66
2023/09/18 06:19:39;;;;;;;;;;;;;;;29.58;40.81;93855.84;5030007;28;9946;-66
2023/09/18 06:22:05;;;;;;;;;;;;;;;29.58;40.60;93864.16;5014692;28;7153;-66
2023/09/18 06:24:34;;;;;;;;;;;;;;;29.59;40.36;93873.94;5014326;28;7655;-61
2023/09/18 06:27:00;;;;;;;;;;;;;;;29.61;41.19;93885.22;5005742;28;6997;-61
2023/09/18 06:29:27;;;;;;;;;;;;;;;29.60;40.91;93881.00;5010513;28;7326;-61
2023/09/18 06:32:02;;;;;;;;;;;;;;;29.60;40.42;93886.53;4997762;28;7272;-62
2023/09/18 06:34:38;;;;;;;;;;;;;;;29.59;40.23;93893.34;5031394;28;7020;-62
2023/09/18 06:37:41;;;;;;;;;;;;;;;29.62;40.44;93915.16;5012018;28;7426;-61
2023/09/18 06:40:08;;;;;;;;;;;;;;;29.61;40.74;93926.78;4950155;28;7409;-61
2023/09/18 06:42:34;;;;;;;;;;;;;;;29.59;40.76;93929.38;4961079;28;7284;-62
2023/09/18 06:45:01;;;;;;;;;;;;;;;29.58;41.10;93933.44;4961331;28;6973;-62
2023/09/18 06:47:27;;;;;;;;;;;;;;;29.58;40.58;93939.00;4947841;28;9196;-62
2023/09/18 06:50:00;;;;;;;;;;;;;;;29.56;41.14;93941.56;4967917;28;7355;-62
2023/09/18 06:52:29;;;;;;;;;;;;;;;29.59;40.98;93948.78;4970039;28;6909;-63
2023/09/18 06:55:10;;;;;;;;;;;;;;;29.57;40.83;93957.66;4952693;28;7657;-62
2023/09/18 06:57:40;;;;;;;;;;;;;;;29.56;40.60;93950.59;4946562;28;7126;-62
2023/09/18 07:00:09;;;;;;;;;;;;;;;29.57;40.77;93962.44;4944077;28;7452;-63
2023/09/18 07:02:35;;;;;;;;;;;;;;;29.57;40.53;93970.75;4958641;28;7606;-62
2023/09/18 07:05:01;;;;;;;;;;;;;;;29.57;40.53;93988.13;4954293;28;8997;-63
2023/09/18 07:07:28;;;;;;;;;;;;;;;29.56;40.86;93989.41;4953360;28;9232;-62
2023/09/18 07:09:56;;;;;;;;;;;;;;;29.53;41.47;93992.53;4947437;28;7090;-62
2023/09/18 07:12:23;;;;;;;;;;;;;;;29.56;40.29;93996.97;4949797;28;7293;-62
2023/09/18 07:14:52;;;;;;;;;;;;;;;29.54;40.68;93988.47;4992359;28;9249;-62
2023/09/18 07:17:18;;;;;;;;;;;;;;;29.54;41.13;93994.75;5013262;28;7218;-62
2023/09/18 07:19:47;;;;;;;;;;;;;;;29.53;41.26;93998.84;5010347;28;7240;-62
2023/09/18 07:22:13;;;;;;;;;;;;;;;29.52;40.56;94004.91;5009484;28;8162;-63
2023/09/18 07:24:45;;;;;;;;;;;;;;;29.52;40.56;94002.88;5011745;28;7272;-62
2023/09/18 07:27:17;;;;;;;;;;;;;;;29.48;41.05;93988.63;5012522;28;7069;-62
2023/09/18 07:29:49;;;;;;;;;;;;;;;29.50;40.80;93996.41;5010724;28;7600;-63
2023/09/18 07:32:23;;;;;;;;;;;;;;;29.52;40.79;94002.13;5012560;28;8296;-64
2023/09/18 07:34:54;;;;;;;;;;;;;;;29.54;40.43;94003.06;5009331;28;7231;-61
2023/09/18 07:37:21;;;;;;;;;;;;;;;29.54;40.91;94002.31;5010756;28;8101;-61
2023/09/18 07:39:51;;;;;;;;;;;;;;;29.53;40.69;93998.84;5005548;28;7069;-61
2023/09/18 07:42:19;;;;;;;;;;;;;;;29.53;41.10;94001.59;5010759;28;7216;-62
2023/09/18 07:44:50;;;;;;;;;;;;;;;29.53;40.88;94000.84;5022869;28;7277;-62
2023/09/18 07:47:26;;;;;;;;;;;;;;;29.53;41.52;94009.91;5012262;28;9440;-62
2023/09/18 07:49:55;;;;;;;;;;;;;;;29.53;41.09;94014.72;5004180;28;7235;-62
2023/09/18 07:52:23;;;;;;;;;;;;;;;29.53;40.45;94014.72;5011135;28;7039;-61
2023/09/18 07:54:54;;;;;;;;;;;;;;;29.55;41.00;94026.00;5011087;28;9062;-62
2023/09/18 07:57:29;;;;;;;;;;;;;;;29.53;41.23;94031.34;5012367;28;7235;-62
2023/09/18 08:00:07;;;;;;;;;;;;;;;29.50;40.60;94022.09;5010804;28;7166;-62
2023/09/18 08:02:34;;;;;;;;;;;;;;;29.50;41.46;94024.84;5009554;28;7007;-61
2023/09/18 08:05:13;;;;;;;;;;;;;;;29.52;41.10;94032.63;5028461;28;7038;-62
2023/09/18 08:07:52;;;;;;;;;;;;;;;29.54;40.23;94032.81;5006808;28;6995;-62
2023/09/18 08:10:24;;;;;;;;;;;;;;;29.55;40.91;94037.06;5023945;28;9099;-61
2023/09/18 08:12:52;;;;;;;;;;;;;;;29.52;41.11;94038.16;5014878;28;9063;-61
2023/09/18 08:15:20;;;;;;;;;;;;;;;29.54;41.32;94049.44;5011647;28;7262;-61
2023/09/18 08:18:01;;;;;;;;;;;;;;;29.52;41.02;94057.56;5017874;28;7247;-61
2023/09/18 08:20:40;;;;;;;;;;;;;;;29.53;41.24;94064.59;5001545;28;7240;-62
2023/09/18 08:23:16;;;;;;;;;;;;;;;29.53;41.32;94061.81;5003679;28;6998;-61
2023/09/18 08:25:55;;;;;;;;;;;;;;;29.52;40.32;94065.88;5008598;28;7337;-62
2023/09/18 08:28:21;;;;;;;;;;;;;;;29.54;40.65;94057.75;5006808;28;9202;-62
2023/09/18 08:31:42;;;;;;;;;;;;;;;29.54;41.46;94061.28;5026693;28;8942;-62
2023/09/18 08:34:19;;;;;;;;;;;;;;;29.53;41.06;94061.81;4973786;28;7212;-62
2023/09/18 08:36:46;;;;;;;;;;;;;;;29.54;40.53;94064.03;4973907;28;9394;-61
2023/09/18 08:39:12;;;;;;;;;;;;;;;29.54;41.01;94077.16;4968894;28;8845;-61
2023/09/18 08:41:42;;;;;;;;;;;;;;;29.54;40.68;94079.94;4982661;28;9094;-61
2023/09/18 08:44:11;;;;;;;;;;;;;;;29.55;40.44;94086.97;4970326;28;9074;-55
2023/09/18 08:46:38;;;;;;;;;;;;;;;29.51;41.15;94076.22;4969908;28;7195;-55
2023/09/18 08:49:05;;;;;;;;;;;;;;;29.54;41.02;94082.69;4974697;28;7263;-55
2023/09/18 08:51:35;;;;;;;;;;;;;;;29.54;41.09;94093.78;4971413;28;7733;-55
2023/09/18 08:54:06;;;;;;;;;;;;;;;29.54;41.66;94091.00;4970646;28;8876;-56
2023/09/18 08:56:34;;;;;;;;;;;;;;;29.54;41.35;94102.84;4989886;28;7054;-56
2023/09/18 08:59:01;;;;;;;;;;;;;;;29.54;41.51;94107.63;4972230;28;7251;-55
2023/09/18 09:01:27;;;;;;;;;;;;;;;29.54;41.00;94108.38;4986834;28;7177;-56
2023/09/18 09:04:04;;;;;;;;;;;;;;;29.55;41.13;94107.13;4966339;28;8695;-55
2023/09/18 09:06:30;;;;;;;;;;;;;;;29.53;41.23;94109.69;4987625;28;7119;-55
2023/09/18 09:08:59;;;;;;;;;;;;;;;29.55;40.42;94104.34;4992297;28;7534;-55
2023/09/18 09:11:29;;;;;;;;;;;;;;;29.56;41.47;94111.34;5008294;28;7565;-55
2023/09/18 09:14:21;;;;;;;;;;;;;;;29.55;41.06;94114.69;5011742;28;7248;-55
2023/09/18 09:16:51;;;;;;;;;;;;;;;29.55;41.21;94125.75;5008992;28;7413;-55
2023/09/18 09:19:38;;;;;;;;;;;;;;;29.53;41.47;94131.09;5011613;28;7227;-55
2023/09/18 09:22:09;;;;;;;;;;;;;;;29.54;40.92;94121.50;5008076;28;7009;-55
2023/09/18 09:24:37;;;;;;;;;;;;;;;29.51;40.84;94119.81;5002724;28;7009;-55
2023/09/18 09:27:18;;;;;;;;;;;;;;;29.50;40.82;94121.84;5022818;28;9138;-55
2023/09/18 09:30:02;;;;;;;;;;;;;;;29.52;41.18;94135.16;5009412;28;9226;-55
2023/09/18 09:32:34;;;;;;;;;;;;;;;29.50;41.22;94132.94;5009015;28;9276;-56
2023/09/18 09:35:33;;;;;;;;;;;;;;;29.52;40.50;94143.47;5011997;28;7220;-55
2023/09/18 09:38:06;;;;;;;;;;;;;;;29.50;41.41;94132.19;5001528;28;7239;-55
2023/09/18 09:40:40;;;;;;;;;;;;;;;29.49;41.00;94128.66;5030332;28;9080;-56
2023/09/18 09:43:27;;;;;;;;;;;;;;;29.50;41.34;94132.94;5010175;28;7382;-55
2023/09/18 09:46:17;;;;;;;;;;;;;;;29.52;41.07;94129.59;5002574;28;7246;-55
2023/09/18 09:49:16;;;;;;;;;;;;;;;29.53;41.20;94122.78;5006442;28;7624;-55
2023/09/18 09:52:22;;;;;;;;;;;;;;;29.54;41.63;94133.31;5015466;28;7242;-56
2023/09/18 09:54:49;;;;;;;;;;;;;;;29.52;41.40;94132.38;5005804;28;9313;-66
2023/09/18 09:57:25;;;;;;;;;;;;;;;29.52;40.69;94127.59;5013384;28;9112;-66
2023/09/18 10:00:42;;;;;;;;;;;;;;;29.52;41.72;94140.69;5018849;28;7070;-66
2023/09/18 10:03:27;;;;;;;;;;;;;;;29.50;40.86;94140.50;4955839;28;9237;-66
2023/09/18 10:05:57;;;;;;;;;;;;;;;29.48;41.26;94146.59;4948499;28;7244;-66
2023/09/18 10:08:34;;;;;;;;;;;;;;;29.50;40.45;94137.72;4961382;28;6981;-65
2023/09/18 10:11:30;;;;;;;;;;;;;;;29.50;41.11;94151.59;4959064;28;9069;-65
2023/09/18 10:14:16;;;;;;;;;;;;;;;29.50;41.50;94146.78;4934172;29;7536;-65
2023/09/18 10:16:56;;;;;;;;;;;;;;;29.50;40.77;94148.81;4934001;28;7013;-66
2023/09/18 10:19:35;;;;;;;;;;;;;;;29.51;41.23;94153.09;4940522;28;9487;-65
2023/09/18 10:22:05;;;;;;;;;;;;;;;29.51;40.81;94158.63;4937428;28;7242;-65
2023/09/18 10:24:37;;;;;;;;;;;;;;;29.51;40.64;94158.63;4930093;28;7139;-65
2023/09/18 10:27:06;;;;;;;;;;;;;;;29.51;40.65;94155.84;4918446;28;8446;-65
2023/09/18 10:29:36;;;;;;;;;;;;;;;29.50;40.94;94154.34;4926583;28;7082;-65
2023/09/18 10:32:09;;;;;;;;;;;;;;;29.50;41.65;94159.91;4934545;28;9372;-66
2023/09/18 10:34:53;;;;;;;;;;;;;;;29.48;41.31;94156.94;4935592;28;7383;-65
2023/09/18 10:37:41;;;;;;;;;;;;;;;29.51;40.78;94161.41;4927962;28;8740;-65
2023/09/18 10:40:17;;;;;;;;;;;;;;;29.50;40.50;94154.34;4928048;28;7310;-65
2023/09/18 10:43:17;;;;;;;;;;;;;;;29.49;41.49;94150.13;4957066;28;7004;-66
2023/09/18 10:45:53;;;;;;;;;;;;;;;29.50;40.90;94138.47;4914838;29;7241;-66
2023/09/18 10:48:49;;;;;;;;;;;;;;;29.50;41.65;94148.81;4881053;29;9905;-65
2023/09/18 10:51:22;;;;;;;;;;;;;;;29.50;41.47;94134.94;4923274;28;7052;-65
2023/09/18 10:53:48;;;;;;;;;;;;;;;29.53;41.61;94134.63;4917606;29;7417;-66
2023/09/18 10:56:26;;;;;;;;;;;;;;;29.54;41.39;94124.25;4927143;29;7068;-65
2023/09/18 10:59:15;;;;;;;;;;;;;;;29.52;41.53;94110.97;4918280;29;7201;-65
2023/09/18 11:02:01;;;;;;;;;;;;;;;29.52;40.33;94107.44;4921154;28;9092;-65
2023/09/18 11:04:31;;;;;;;;;;;;;;;29.50;41.02;94105.22;4921036;29;7116;-57
2023/09/18 11:06:59;;;;;;;;;;;;;;;29.52;40.52;94099.13;4910034;28;6917;-57
2023/09/18 11:09:43;;;;;;;;;;;;;;;29.52;41.21;94102.66;4932895;28;7018;-57
2023/09/18 11:12:11;;;;;;;;;;;;;;;29.52;41.55;94090.81;4941720;28;7938;-57
2023/09/18 11:14:56;;;;;;;;;;;;;;;29.53;40.35;94086.78;4937606;28;6971;-56
2023/09/18 11:17:41;;;;;;;;;;;;;;;29.54;41.58;94066.81;4930619;28;9191;-57
2023/09/18 11:20:16;;;;;;;;;;;;;;;29.54;40.30;94055.72;4927190;29;9036;-57
2023/09/18 11:23:17;;;;;;;;;;;;;;;29.53;40.80;94047.97;5013902;28;7414;-57
2023/09/18 11:26:06;;;;;;;;;;;;;;;29.53;40.41;94036.88;5002414;28;7364;-57
2023/09/18 11:28:33;;;;;;;;;;;;;;;29.52;40.69;94033.38;5007631;28;7010;-57
2023/09/18 11:31:11;;;;;;;;;;;;;;;29.47;40.60;94025.94;5004275;28;7573;-57
2023/09/18 11:33:52;;;;;;;;;;;;;;;29.51;41.63;94022.84;5005086;28;7385;-57
2023/09/18 11:36:55;;;;;;;;;;;;;;;29.51;41.56;94031.91;5012488;28;7190;-56
2023/09/18 11:39:48;;;;;;;;;;;;;;;29.52;40.89;94024.31;5010450;28;7159;-57
2023/09/18 11:42:19;;;;;;;;;;;;;;;29.52;40.29;94013.97;5011509;28;7221;-57
2023/09/18 11:44:48;;;;;;;;;;;;;;;29.49;40.56;94012.28;5002975;28;7029;-57
2023/09/18 11:47:19;;;;;;;;;;;;;;;29.50;40.73;94007.47;5001243;28;7271;-57
2023/09/18 11:50:01;;;;;;;;;;;;;;;29.50;40.90;94013.03;5011039;28;7222;-57
2023/09/18 11:52:29;;;;;;;;;;;;;;;29.51;41.10;94020.06;5011933;28;8395;-57
2023/09/18 11:55:01;;;;;;;;;;;;;;;29.50;40.78;94018.56;5010046;28;7255;-57
2023/09/18 11:57:30;;;;;;;;;;;;;;;29.49;40.50;94008.78;5004971;28;9095;-57
2023/09/18 12:00:11;;;;;;;;;;;;;;;29.45;40.95;94002.84;5008452;28;9415;-57
2023/09/18 12:02:41;;;;;;;;;;;;;;;29.46;40.96;93999.53;5008523;28;7633;-57
2023/09/18 12:05:13;;;;;;;;;;;;;;;29.49;40.94;94006.72;5023614;28;8867;-57
2023/09/18 12:07:45;;;;;;;;;;;;;;;29.52;41.24;93993.81;5008601;28;7180;-57
2023/09/18 12:10:21;;;;;;;;;;;;;;;29.52;41.01;93991.03;5002872;28;7163;-57
2023/09/18 12:12:55;;;;;;;;;;;;;;;29.49;40.68;93992.16;4997838;28;7018;-62
2023/09/18 12:15:29;;;;;;;;;;;;;;;29.45;40.95;93989.00;5002389;28;7197;-62
2023/09/18 12:18:12;;;;;;;;;;;;;;;29.42;40.77;93982.50;5026732;28;7494;-62
2023/09/18 12:20:49;;;;;;;;;;;;;;;29.38;40.89;93979.34;5022056;28;9561;-62
2023/09/18 12:23:20;;;;;;;;;;;;;;;29.38;40.95;93975.84;4997802;28;9151;-62
2023/09/18 12:25:50;;;;;;;;;;;;;;;29.34;41.02;93984.47;4997717;28;7139;-62
2023/09/18 12:28:19;;;;;;;;;;;;;;;29.33;40.61;93988.56;5004583;28;7910;-62
2023/09/18 12:30:50;;;;;;;;;;;;;;;29.31;41.07;93971.75;4997159;28;7070;-61
2023/09/18 12:33:17;;;;;;;;;;;;;;;29.34;40.44;93978.22;5009491;28;8415;-61
2023/09/18 12:35:46;;;;;;;;;;;;;;;29.35;41.54;93985.22;4998912;28;7263;-62
2023/09/18 12:38:27;;;;;;;;;;;;;;;29.36;41.16;93995.03;5009196;28;7856;-62
2023/09/18 12:40:54;;;;;;;;;;;;;;;29.33;41.51;93988.56;4996745;28;7590;-62
2023/09/18 12:43:29;;;;;;;;;;;;;;;29.36;40.86;94000.59;5015541;28;7092;-61
2023/09/18 12:45:56;;;;;;;;;;;;;;;29.35;41.65;94008.16;5009912;28;8881;-61
2023/09/18 12:48:22;;;;;;;;;;;;;;;29.34;41.42;94003.88;5024504;28;7047;-62
2023/09/18 12:51:13;;;;;;;;;;;;;;;29.35;41.63;93988.75;5018450;28;9504;-62
2023/09/18 12:53:46;;;;;;;;;;;;;;;29.34;41.59;93992.06;5004692;28;7490;-62
2023/09/18 12:56:13;;;;;;;;;;;;;;;29.34;40.82;93984.47;5010857;28;6971;-62
2023/09/18 12:58:53;;;;;;;;;;;;;;;29.32;41.48;93981.53;5007496;28;6987;-62
2023/09/18 13:01:23;;;;;;;;;;;;;;;29.33;41.50;93982.25;5008148;28;7237;-62
2023/09/18 13:03:49;;;;;;;;;;;;;;;29.34;40.91;93986.53;5025710;28;7329;-62
2023/09/18 13:06:22;;;;;;;;;;;;;;;29.33;41.79;93985.78;5009517;28;9253;-62
2023/09/18 13:08:53;;;;;;;;;;;;;;;29.32;41.68;93978.03;5008486;28;8772;-62
2023/09/18 13:11:25;;;;;;;;;;;;;;;29.33;41.45;93977.47;5003002;28;7879;-62
2023/09/18 13:14:00;;;;;;;;;;;;;;;29.33;41.14;93980.25;5015971;28;7211;-62
2023/09/18 13:16:40;;;;;;;;;;;;;;;29.35;40.90;93965.84;5027376;28;7228;-62
2023/09/18 13:19:10;;;;;;;;;;;;;;;29.35;40.57;93957.53;5015301;28;7238;-62
2023/09/18 13:22:24;;;;;;;;;;;;;;;29.36;40.83;93956.25;5014304;28;7298;-62
2023/09/18 13:25:01;;;;;;;;;;;;;;;29.36;41.46;93942.41;4936757;28;7270;-66
2023/09/18 13:27:38;;;;;;;;;;;;;;;29.38;41.10;93945.38;4950029;28;7290;-66
2023/09/18 13:30:41;;;;;;;;;;;;;;;29.36;41.27;93945.88;4924130;28;9121;-66